Time;durP1;ratioP1;P1;durP2;ratioP2;P2;SDS_P1;SDS_P2;PMS_P1;PMS_P2;Temp;Humidity;BMP_temperature;BMP_pressure;BME280_temperature;BME280_humidity;BME280_pressure;Samples;Min_cycle;Max_cycle;Signal;HPM_P1;HPM_P2
2022/09/25 00:01:23;;;;;;;0.73;0.73;;;13.80;99.90;;;;;;4415705;32;20128;-75
2022/09/25 00:03:48;;;;;;;0.65;0.62;;;13.80;99.90;;;;;;4394667;32;20085;-76
2022/09/25 00:06:17;;;;;;;1.37;0.52;;;13.80;99.90;;;;;;4413328;32;20529;-76
2022/09/25 00:08:43;;;;;;;1.55;0.68;;;13.80;99.90;;;;;;4414284;32;20565;-76
2022/09/25 00:11:12;;;;;;;0.90;0.80;;;13.90;99.90;;;;;;4416936;32;20074;-76
2022/09/25 00:13:39;;;;;;;0.68;0.45;;;13.80;99.90;;;;;;4416377;32;20145;-75
2022/09/25 00:16:05;;;;;;;1.08;1.00;;;13.80;99.90;;;;;;4414798;32;20133;-76
2022/09/25 00:20:02;;;;;;;0.52;0.52;;;13.80;99.90;;;;;;4411797;32;20105;-76
2022/09/25 00:21:17;;;;;;;0.40;0.40;;;13.80;99.90;;;;;;4406045;32;20473;-74
2022/09/25 00:23:45;;;;;;;0.80;0.80;;;13.80;99.90;;;;;;4406820;32;20090;-75
2022/09/25 00:26:14;;;;;;;0.95;0.57;;;13.70;99.90;;;;;;4411106;32;20098;-75
2022/09/25 00:28:41;;;;;;;1.00;0.75;;;13.80;99.90;;;;;;4406060;32;20106;-75
2022/09/25 00:31:08;;;;;;;0.50;0.50;;;13.80;99.90;;;;;;4396941;32;20129;-76
2022/09/25 00:33:35;;;;;;;1.05;1.00;;;13.80;99.90;;;;;;4393498;32;20313;-75
2022/09/25 00:36:03;;;;;;;0.45;0.45;;;13.80;99.90;;;;;;4404043;32;20070;-76
2022/09/25 00:38:30;;;;;;;2.45;1.15;;;13.80;99.90;;;;;;4406373;32;20435;-76
2022/09/25 00:40:56;;;;;;;0.68;0.68;;;13.80;99.90;;;;;;4408488;32;20093;-75
2022/09/25 00:43:40;;;;;;;0.40;0.40;;;13.80;99.90;;;;;;4407870;32;20829;-75
2022/09/25 00:46:30;;;;;;;0.50;0.50;;;13.70;99.90;;;;;;4408603;32;20521;-75
2022/09/25 00:49:03;;;;;;;0.60;0.60;;;13.70;99.90;;;;;;4397877;32;20081;-75
2022/09/25 00:51:35;;;;;;;0.73;0.73;;;13.70;99.90;;;;;;4406854;32;20117;-75
2022/09/25 00:54:03;;;;;;;4.03;2.05;;;13.70;99.90;;;;;;4410023;32;20131;-75
2022/09/25 00:56:33;;;;;;;0.40;0.40;;;13.70;99.90;;;;;;4409515;32;20125;-74
2022/09/25 00:58:59;;;;;;;0.60;0.60;;;13.70;99.90;;;;;;4407077;32;20506;-76
2022/09/25 01:01:24;;;;;;;0.90;0.73;;;13.70;99.90;;;;;;4407525;32;20114;-76
2022/09/25 01:03:50;;;;;;;0.60;0.60;;;13.80;99.90;;;;;;4387013;32;20128;-75
2022/09/25 01:06:16;;;;;;;1.85;1.10;;;13.80;99.90;;;;;;4404401;32;20066;-75
2022/09/25 01:08:43;;;;;;;0.47;0.47;;;13.70;99.90;;;;;;4406921;32;20070;-74
2022/09/25 01:11:09;;;;;;;0.70;0.70;;;13.80;99.90;;;;;;4407583;32;20081;-75
2022/09/25 01:13:35;;;;;;;0.60;0.60;;;13.80;99.90;;;;;;4407773;32;20061;-76
2022/09/25 01:16:15;;;;;;;0.32;0.32;;;13.70;99.90;;;;;;4408584;32;20097;-75
2022/09/25 01:18:51;;;;;;;0.55;0.55;;;13.80;99.90;;;;;;4405958;32;20505;-75
2022/09/25 01:21:54;;;;;;;0.55;0.55;;;13.80;99.90;;;;;;4409197;32;20086;-75
2022/09/25 01:24:36;;;;;;;0.93;0.50;;;13.80;99.90;;;;;;4398515;32;20124;-75
2022/09/25 01:27:18;;;;;;;0.25;0.25;;;13.80;99.90;;;;;;4409619;32;20111;-75
2022/09/25 01:30:12;;;;;;;0.62;0.62;;;13.80;99.90;;;;;;4397225;32;20081;-74
2022/09/25 01:33:04;;;;;;;0.98;0.65;;;13.90;99.90;;;;;;4393071;32;20085;-76
2022/09/25 01:35:56;;;;;;;0.77;0.73;;;13.80;99.90;;;;;;4388110;32;20101;-74
2022/09/25 01:38:44;;;;;;;1.62;0.95;;;13.80;99.90;;;;;;4396376;32;20067;-76
2022/09/25 01:41:34;;;;;;;0.50;0.50;;;13.80;99.90;;;;;;4395607;32;20073;-77
2022/09/25 01:44:12;;;;;;;0.50;0.50;;;13.70;99.90;;;;;;4395859;32;20560;-75
2022/09/25 01:46:45;;;;;;;0.60;0.60;;;13.70;99.90;;;;;;4405341;32;20139;-74
2022/09/25 01:49:21;;;;;;;0.65;0.65;;;13.70;99.90;;;;;;4405248;32;20517;-74
2022/09/25 01:51:50;;;;;;;1.85;0.75;;;13.60;99.90;;;;;;4406612;32;20073;-75
2022/09/25 01:54:23;;;;;;;0.68;0.68;;;13.60;99.90;;;;;;4407411;32;20069;-75
2022/09/25 01:56:56;;;;;;;0.70;0.70;;;13.60;99.90;;;;;;4406634;32;20160;-74
2022/09/25 01:59:31;;;;;;;0.40;0.40;;;13.50;99.90;;;;;;4404677;32;20136;-74
2022/09/25 02:02:02;;;;;;;0.47;0.47;;;13.60;99.90;;;;;;4404001;32;20124;-74
2022/09/25 02:04:33;;;;;;;0.50;0.50;;;13.60;99.90;;;;;;4385590;32;20097;-75
2022/09/25 02:07:08;;;;;;;0.60;0.60;;;13.50;99.90;;;;;;4406439;32;20164;-74
2022/09/25 02:09:40;;;;;;;1.23;0.70;;;13.50;99.90;;;;;;4405762;32;20189;-74
2022/09/25 02:12:14;;;;;;;0.43;0.43;;;13.50;99.90;;;;;;4406910;32;20078;-75
2022/09/25 02:14:48;;;;;;;0.70;0.70;;;13.50;99.90;;;;;;4406443;32;20065;-74
2022/09/25 02:20:30;;;;;;;0.60;0.60;;;13.40;99.90;;;;;;4407009;32;20856;-75
2022/09/25 02:20:40;;;;;;;0.43;0.43;;;13.40;99.90;;;;;;4393691;32;20238;-74
2022/09/25 02:22:52;;;;;;;1.80;0.80;;;13.40;99.90;;;;;;4401005;32;20106;-74
2022/09/25 02:25:43;;;;;;;0.65;0.65;;;13.40;99.90;;;;;;4407942;32;20378;-74
2022/09/25 02:28:09;;;;;;;;;;;13.40;99.90;;;;;;4397097;32;20510;-74
2022/09/25 02:30:34;;;;;;;0.65;0.65;;;13.30;99.90;;;;;;4407943;32;20369;-75
2022/09/25 02:33:00;;;;;;;0.50;0.50;;;13.30;99.90;;;;;;4397356;32;20070;-74
2022/09/25 02:35:27;;;;;;;0.62;0.62;;;13.30;99.90;;;;;;4395433;32;20140;-74
2022/09/25 02:37:56;;;;;;;0.80;0.68;;;13.30;99.90;;;;;;4407467;32;20061;-74
2022/09/25 02:40:32;;;;;;;0.80;0.80;;;13.30;99.90;;;;;;4405474;32;20485;-74
2022/09/25 02:43:05;;;;;;;0.45;0.45;;;13.30;99.90;;;;;;4407209;32;20522;-75
2022/09/25 02:46:01;;;;;;;0.65;0.65;;;13.30;99.90;;;;;;4407466;32;20085;-75
2022/09/25 02:48:40;;;;;;;2.08;0.98;;;13.30;99.90;;;;;;4405588;32;20105;-75
2022/09/25 02:51:18;;;;;;;0.77;0.70;;;13.20;99.90;;;;;;4407328;32;20109;-74
2022/09/25 02:54:06;;;;;;;0.68;0.68;;;13.20;99.90;;;;;;4407299;32;20097;-74
2022/09/25 02:56:43;;;;;;;0.50;0.50;;;13.30;99.90;;;;;;4396882;32;20101;-75
2022/09/25 02:59:14;;;;;;;1.33;0.73;;;13.30;99.90;;;;;;4406139;32;20069;-74
2022/09/25 03:01:41;;;;;;;0.50;0.50;;;13.20;99.90;;;;;;4405414;32;20198;-75
2022/09/25 03:04:08;;;;;;;0.40;0.40;;;13.30;99.90;;;;;;4387638;32;20140;-75
2022/09/25 03:06:36;;;;;;;1.08;0.98;;;13.30;99.90;;;;;;4406527;32;20542;-75
2022/09/25 03:09:04;;;;;;;0.50;0.50;;;13.20;99.90;;;;;;4405313;32;20105;-74
2022/09/25 03:11:29;;;;;;;0.50;0.50;;;13.30;99.90;;;;;;4409544;32;20132;-74
2022/09/25 03:13:59;;;;;;;3.62;0.65;;;13.30;99.90;;;;;;4409087;32;20070;-74
2022/09/25 03:16:34;;;;;;;0.60;0.60;;;13.20;99.90;;;;;;4409706;32;20153;-74
2022/09/25 03:19:01;;;;;;;0.57;0.57;;;13.20;99.90;;;;;;4407824;32;20554;-75
2022/09/25 03:21:27;;;;;;;0.70;0.70;;;13.20;99.90;;;;;;4410233;32;20508;-75
2022/09/25 03:23:55;;;;;;;0.70;0.70;;;13.10;99.90;;;;;;4415727;32;20144;-75
2022/09/25 03:26:21;;;;;;;0.98;0.73;;;13.10;99.90;;;;;;4417354;32;20215;-75
2022/09/25 03:28:47;;;;;;;0.52;0.52;;;13.20;99.90;;;;;;4413919;32;20138;-75
2022/09/25 03:31:12;;;;;;;2.28;0.93;;;13.20;99.90;;;;;;4414866;32;20158;-74
2022/09/25 03:33:40;;;;;;;0.55;0.55;;;13.20;99.90;;;;;;4398149;32;20541;-75
2022/09/25 03:36:10;;;;;;;0.80;0.80;;;13.10;99.90;;;;;;4413849;32;20081;-76
2022/09/25 03:38:37;;;;;;;1.60;0.70;;;13.10;99.90;;;;;;4412838;32;20124;-76
2022/09/25 03:41:07;;;;;;;0.60;0.60;;;13.10;99.90;;;;;;4416638;32;20089;-76
2022/09/25 03:43:36;;;;;;;0.50;0.50;;;13.10;99.90;;;;;;4415061;32;20069;-75
2022/09/25 03:46:03;;;;;;;0.70;0.70;;;13.00;99.90;;;;;;4415630;32;20093;-76
2022/09/25 03:48:29;;;;;;;0.60;0.60;;;13.00;99.90;;;;;;4412755;32;20114;-76
2022/09/25 03:50:55;;;;;;;3.28;0.93;;;13.00;99.90;;;;;;4413943;32;20082;-75
2022/09/25 03:53:21;;;;;;;0.62;0.62;;;13.00;99.90;;;;;;4414991;32;20175;-77
2022/09/25 03:55:47;;;;;;;0.60;0.60;;;13.00;99.90;;;;;;4413350;32;20116;-75
2022/09/25 03:58:15;;;;;;;0.55;0.55;;;13.00;99.90;;;;;;4414672;32;22285;-76
2022/09/25 04:00:40;;;;;;;0.70;0.70;;;13.10;99.90;;;;;;4416411;32;20081;-75
2022/09/25 04:03:06;;;;;;;0.40;0.40;;;13.00;99.90;;;;;;4402105;32;20182;-75
2022/09/25 04:05:31;;;;;;;1.25;1.15;;;12.90;99.90;;;;;;4405942;32;20140;-75
2022/09/25 04:07:57;;;;;;;0.57;0.47;;;12.90;99.90;;;;;;4413392;32;20070;-74
2022/09/25 04:10:22;;;;;;;0.60;0.60;;;12.90;99.90;;;;;;4416873;32;20415;-74
2022/09/25 04:12:48;;;;;;;0.88;0.65;;;12.90;99.90;;;;;;4418057;32;20485;-75
2022/09/25 04:15:14;;;;;;;0.50;0.50;;;12.90;99.90;;;;;;4416001;32;20198;-74
2022/09/25 04:17:39;;;;;;;0.65;0.65;;;12.90;99.90;;;;;;4411554;32;20062;-74
2022/09/25 04:20:05;;;;;;;0.60;0.60;;;12.90;99.90;;;;;;4413441;32;20065;-75
2022/09/25 04:22:31;;;;;;;0.95;0.80;;;12.90;99.90;;;;;;4408800;32;20073;-74
2022/09/25 04:24:57;;;;;;;0.75;0.75;;;12.90;99.90;;;;;;4409422;32;20070;-74
2022/09/25 04:27:22;;;;;;;2.47;0.82;;;12.90;99.90;;;;;;4406912;32;20597;-73
2022/09/25 04:29:48;;;;;;;0.60;0.60;;;12.80;99.90;;;;;;4407186;32;20098;-74
2022/09/25 04:33:47;;;;;;;6.12;3.10;;;12.80;99.90;;;;;;4409822;32;20097;-76
2022/09/25 04:35:01;;;;;;;0.50;0.50;;;12.80;99.90;;;;;;4389659;32;20520;-74
2022/09/25 04:37:26;;;;;;;0.62;0.62;;;12.90;99.90;;;;;;4406533;32;20120;-75
2022/09/25 04:39:53;;;;;;;0.68;0.68;;;12.80;99.90;;;;;;4408392;32;20245;-75
2022/09/25 04:42:23;;;;;;;1.30;0.80;;;12.80;99.90;;;;;;4407269;32;20097;-76
2022/09/25 04:44:51;;;;;;;0.50;0.50;;;12.80;99.90;;;;;;4408984;32;20082;-76
2022/09/25 04:47:16;;;;;;;1.55;1.40;;;12.90;99.90;;;;;;4405992;32;20085;-75
2022/09/25 04:49:42;;;;;;;0.50;0.50;;;12.80;99.90;;;;;;4408148;32;20131;-74
2022/09/25 04:52:07;;;;;;;0.60;0.60;;;12.80;99.90;;;;;;4408275;32;20102;-75
2022/09/25 04:54:33;;;;;;;1.02;0.93;;;12.80;99.90;;;;;;4409850;32;20081;-75
2022/09/25 04:56:58;;;;;;;1.17;0.73;;;12.80;99.90;;;;;;4406627;32;20105;-75
2022/09/25 04:59:24;;;;;;;2.00;1.00;;;12.70;99.90;;;;;;4408309;32;20415;-75
2022/09/25 05:01:49;;;;;;;0.75;0.75;;;12.70;99.90;;;;;;4407740;32;20204;-75
2022/09/25 05:04:15;;;;;;;1.75;1.02;;;12.70;99.90;;;;;;4389969;32;20110;-75
2022/09/25 05:06:40;;;;;;;1.08;0.75;;;12.60;99.90;;;;;;4407920;32;20079;-75
2022/09/25 05:09:06;;;;;;;0.80;0.80;;;12.60;99.90;;;;;;4407586;32;20065;-75
2022/09/25 05:11:31;;;;;;;0.60;0.60;;;12.60;99.90;;;;;;4409962;32;20070;-75
2022/09/25 05:13:57;;;;;;;0.55;0.55;;;12.60;99.90;;;;;;4407535;32;20075;-75
2022/09/25 05:16:22;;;;;;;0.65;0.62;;;12.60;99.90;;;;;;4407143;32;20547;-76
2022/09/25 05:18:48;;;;;;;0.70;0.70;;;12.60;99.90;;;;;;4403082;32;20086;-76
2022/09/25 05:21:13;;;;;;;0.95;0.73;;;12.70;99.90;;;;;;4407915;32;20109;-75
2022/09/25 05:23:39;;;;;;;1.75;1.10;;;12.70;99.90;;;;;;4407266;32;20599;-75
2022/09/25 05:26:04;;;;;;;0.47;0.47;;;12.70;99.90;;;;;;4407612;32;20073;-75
2022/09/25 05:28:31;;;;;;;0.82;0.75;;;12.70;99.90;;;;;;4408237;32;20058;-75
2022/09/25 05:31:02;;;;;;;0.77;0.68;;;12.70;99.90;;;;;;4407250;32;20089;-75
2022/09/25 05:33:28;;;;;;;0.57;0.57;;;12.70;99.90;;;;;;4391625;32;20070;-76
2022/09/25 05:35:53;;;;;;;3.47;1.67;;;12.70;99.90;;;;;;4402975;32;20089;-77
2022/09/25 05:38:20;;;;;;;0.73;0.73;;;12.70;99.90;;;;;;4406433;32;20145;-76
2022/09/25 05:40:45;;;;;;;0.70;0.70;;;12.60;99.90;;;;;;4408036;32;20102;-75
2022/09/25 05:43:11;;;;;;;0.57;0.57;;;12.70;99.90;;;;;;4407513;32;20557;-74
2022/09/25 05:45:37;;;;;;;1.08;0.80;;;12.70;99.90;;;;;;4406905;32;20089;-74
2022/09/25 05:48:05;;;;;;;1.08;0.88;;;12.80;99.90;;;;;;4405244;32;20069;-75
2022/09/25 05:50:32;;;;;;;0.62;0.62;;;12.80;99.90;;;;;;4408300;32;20141;-74
2022/09/25 05:52:59;;;;;;;0.65;0.65;;;12.90;99.90;;;;;;4407622;32;20418;-75
2022/09/25 05:55:25;;;;;;;0.60;0.60;;;13.00;99.90;;;;;;4406682;32;20123;-75
2022/09/25 05:57:51;;;;;;;1.00;0.90;;;13.00;99.90;;;;;;4406739;32;20117;-75
2022/09/25 06:00:17;;;;;;;0.70;0.70;;;13.00;99.90;;;;;;4407498;32;20086;-74
2022/09/25 06:02:43;;;;;;;0.85;0.85;;;13.00;99.90;;;;;;4401723;32;20600;-75
2022/09/25 06:05:09;;;;;;;0.73;0.73;;;13.00;99.90;;;;;;4394834;32;20101;-75
2022/09/25 06:07:35;;;;;;;1.55;0.85;;;13.10;99.90;;;;;;4406860;32;20081;-76
2022/09/25 06:10:01;;;;;;;0.73;0.68;;;13.10;99.90;;;;;;4407570;32;20105;-75
2022/09/25 06:12:29;;;;;;;1.85;0.80;;;13.10;99.90;;;;;;4409052;32;20070;-75
2022/09/25 06:14:55;;;;;;;2.22;1.48;;;13.10;99.90;;;;;;4407251;32;20102;-75
2022/09/25 06:17:20;;;;;;;1.08;0.85;;;13.10;99.90;;;;;;4408204;32;20077;-75
2022/09/25 06:19:46;;;;;;;1.10;0.80;;;13.10;99.90;;;;;;4406063;32;20509;-75
2022/09/25 06:22:12;;;;;;;0.70;0.70;;;13.10;99.90;;;;;;4407341;32;20077;-74
2022/09/25 06:24:38;;;;;;;0.70;0.70;;;13.10;99.90;;;;;;4408165;32;20089;-75
2022/09/25 06:27:05;;;;;;;0.93;0.77;;;13.10;99.90;;;;;;4406453;32;20892;-75
2022/09/25 06:29:31;;;;;;;0.60;0.60;;;13.20;99.90;;;;;;4407306;32;21229;-75
2022/09/25 06:31:57;;;;;;;0.68;0.68;;;13.20;99.90;;;;;;4407914;32;20578;-74
2022/09/25 06:34:23;;;;;;;1.15;1.05;;;13.20;99.90;;;;;;4387669;32;20077;-74
2022/09/25 06:36:48;;;;;;;0.65;0.65;;;13.30;99.90;;;;;;4407419;32;20062;-75
2022/09/25 06:39:14;;;;;;;0.80;0.80;;;13.30;99.90;;;;;;4406549;32;20144;-75
2022/09/25 06:41:43;;;;;;;5.95;0.90;;;13.30;99.90;;;;;;4407698;32;20090;-75
2022/09/25 06:44:08;;;;;;;1.25;0.65;;;13.40;99.90;;;;;;4405571;32;20093;-75
2022/09/25 06:46:35;;;;;;;0.65;0.65;;;13.40;99.90;;;;;;4405627;32;20598;-75
2022/09/25 06:49:00;;;;;;;2.30;1.42;;;13.40;99.90;;;;;;4406308;32;20094;-75
2022/09/25 06:51:31;;;;;;;1.25;0.75;;;13.40;99.90;;;;;;4407163;32;20144;-74
2022/09/25 06:53:57;;;;;;;1.75;1.20;;;13.50;99.90;;;;;;4407629;32;20668;-75
2022/09/25 06:56:23;;;;;;;0.75;0.75;;;13.50;99.90;;;;;;4407861;32;20069;-75
2022/09/25 06:58:48;;;;;;;0.65;0.65;;;13.60;99.90;;;;;;4405824;32;20541;-75
2022/09/25 07:01:14;;;;;;;1.85;0.75;;;13.60;99.90;;;;;;4406643;32;20086;-75
2022/09/25 07:03:43;;;;;;;1.05;0.95;;;13.60;99.90;;;;;;4389512;32;20069;-76
2022/09/25 07:06:11;;;;;;;4.68;1.12;;;13.60;99.90;;;;;;4404127;32;20454;-75
2022/09/25 07:08:36;;;;;;;0.77;0.77;;;13.60;99.90;;;;;;4405920;32;20102;-75
2022/09/25 07:11:02;;;;;;;0.40;0.40;;;13.60;99.90;;;;;;4406589;32;20089;-76
2022/09/25 07:13:30;;;;;;;2.95;1.10;;;13.60;99.90;;;;;;4407161;32;20128;-75
2022/09/25 07:15:59;;;;;;;0.98;0.73;;;13.60;99.90;;;;;;4406967;32;20082;-77
2022/09/25 07:18:26;;;;;;;3.35;1.55;;;13.60;99.90;;;;;;4405130;32;20077;-74
2022/09/25 07:20:52;;;;;;;2.65;1.35;;;13.60;99.90;;;;;;4406532;32;20073;-74
2022/09/25 07:23:20;;;;;;;1.65;1.00;;;13.60;99.90;;;;;;4412813;32;20073;-74
2022/09/25 07:25:46;;;;;;;0.70;0.70;;;13.70;99.90;;;;;;4415869;32;20094;-74
2022/09/25 07:28:14;;;;;;;1.33;1.00;;;13.70;99.90;;;;;;4412594;32;20109;-74
2022/09/25 07:30:40;;;;;;;10.82;0.98;;;13.80;99.90;;;;;;4415854;32;20075;-74
2022/09/25 07:33:06;;;;;;;1.37;1.17;;;13.80;99.90;;;;;;4402304;32;20069;-75
2022/09/25 07:35:33;;;;;;;1.23;1.12;;;13.80;99.90;;;;;;4402622;32;20454;-75
2022/09/25 07:37:59;;;;;;;0.60;0.60;;;13.90;99.90;;;;;;4413442;32;20608;-75
2022/09/25 07:40:27;;;;;;;0.98;0.60;;;14.00;99.90;;;;;;4411161;32;20082;-74
2022/09/25 07:42:58;;;;;;;0.68;0.68;;;14.00;99.90;;;;;;4415163;32;20545;-75
2022/09/25 07:45:23;;;;;;;;;;;14.00;99.90;;;;;;4414632;32;20583;-77
2022/09/25 07:47:49;;;;;;;0.70;0.70;;;14.00;99.90;;;;;;4413148;32;20286;-75
2022/09/25 07:50:14;;;;;;;3.50;1.20;;;13.90;99.90;;;;;;4414157;32;20082;-75
2022/09/25 07:52:40;;;;;;;1.20;0.80;;;13.90;99.90;;;;;;4413060;32;20572;-75
2022/09/25 07:55:06;;;;;;;0.80;0.77;;;14.00;99.90;;;;;;4414033;32;20496;-75
2022/09/25 07:57:32;;;;;;;0.60;0.60;;;14.10;99.90;;;;;;4414761;32;20054;-75
2022/09/25 07:59:58;;;;;;;0.52;0.52;;;14.00;99.90;;;;;;4414707;32;20078;-75
2022/09/25 08:02:24;;;;;;;0.60;0.60;;;14.00;99.90;;;;;;4412682;32;20115;-75
2022/09/25 08:04:50;;;;;;;2.05;1.45;;;14.10;99.90;;;;;;4396133;32;20465;-75
2022/09/25 08:07:15;;;;;;;1.00;0.88;;;14.10;99.90;;;;;;4416807;32;20196;-75
2022/09/25 08:09:41;;;;;;;1.67;1.45;;;14.20;99.90;;;;;;4415567;32;20805;-75
2022/09/25 08:12:10;;;;;;;1.37;0.90;;;14.30;99.90;;;;;;4414847;32;20093;-75
2022/09/25 08:14:36;;;;;;;0.82;0.82;;;14.30;99.90;;;;;;4412915;32;20077;-75
2022/09/25 08:17:01;;;;;;;0.93;0.93;;;14.40;99.90;;;;;;4415121;32;20078;-76
2022/09/25 08:19:27;;;;;;;1.15;1.00;;;14.60;99.90;;;;;;4414782;32;20296;-76
2022/09/25 08:21:52;;;;;;;3.55;1.00;;;14.50;99.90;;;;;;4417925;32;20086;-75
2022/09/25 08:24:19;;;;;;;1.58;1.45;;;14.60;99.90;;;;;;4418163;32;20140;-75
2022/09/25 08:26:45;;;;;;;0.73;0.73;;;14.60;99.90;;;;;;4414037;32;20097;-75
2022/09/25 08:29:11;;;;;;;1.23;1.12;;;14.60;99.90;;;;;;4415687;32;20082;-76
2022/09/25 08:31:36;;;;;;;1.40;1.08;;;14.70;99.90;;;;;;4414729;32;20086;-74
2022/09/25 08:34:02;;;;;;;1.45;1.35;;;14.70;99.90;;;;;;4397912;32;83172;-75
2022/09/25 08:36:27;;;;;;;2.00;1.12;;;14.80;99.90;;;;;;4417081;32;20140;-76
2022/09/25 08:38:59;;;;;;;0.80;0.80;;;14.80;99.90;;;;;;4414133;32;20443;-75
2022/09/25 08:41:42;;;;;;;0.82;0.82;;;14.80;99.90;;;;;;4412206;32;20105;-76
2022/09/25 08:44:33;;;;;;;3.40;1.27;;;14.80;99.90;;;;;;4415561;32;20105;-76
2022/09/25 08:49:13;;;;;;;0.80;0.80;;;14.80;99.90;;;;;;4405146;32;20136;-75
2022/09/25 08:50:05;;;;;;;3.75;1.15;;;14.80;99.90;;;;;;4407574;32;20146;-75
2022/09/25 08:52:31;;;;;;;8.05;0.88;;;14.80;99.90;;;;;;4414252;32;20107;-76
2022/09/25 08:54:58;;;;;;;5.40;1.45;;;14.80;99.90;;;;;;4416629;32;20125;-75
2022/09/25 08:57:33;;;;;;;1.00;0.90;;;14.90;99.90;;;;;;4415519;32;20061;-75
2022/09/25 09:00:04;;;;;;;1.17;1.02;;;14.90;99.90;;;;;;4413873;32;20090;-76
2022/09/25 09:02:41;;;;;;;1.40;1.10;;;14.90;99.90;;;;;;4412083;32;20426;-75
2022/09/25 09:05:16;;;;;;;1.20;1.02;;;14.80;99.90;;;;;;4398615;32;20091;-76
2022/09/25 09:07:45;;;;;;;1.42;0.90;;;14.90;99.90;;;;;;4415364;32;20165;-75
2022/09/25 09:10:50;;;;;;;1.12;0.88;;;15.00;99.90;;;;;;4415403;32;20137;-76
2022/09/25 09:13:29;;;;;;;1.10;1.00;;;15.00;99.90;;;;;;4402079;32;20093;-75
2022/09/25 09:16:02;;;;;;;1.83;0.70;;;15.10;99.90;;;;;;4401753;32;20181;-76
2022/09/25 09:18:31;;;;;;;1.02;0.82;;;15.10;99.90;;;;;;4415640;32;20184;-75
2022/09/25 09:21:01;;;;;;;0.62;0.62;;;15.20;99.90;;;;;;4400465;32;20081;-75
2022/09/25 09:23:35;;;;;;;0.70;0.70;;;15.30;99.90;;;;;;4411345;32;20074;-75
2022/09/25 09:26:03;;;;;;;2.28;1.33;;;15.20;99.90;;;;;;4414989;32;20625;-76
2022/09/25 09:28:57;;;;;;;0.82;0.75;;;15.20;99.90;;;;;;4413061;32;20442;-76
2022/09/25 09:31:47;;;;;;;1.40;1.15;;;15.30;99.90;;;;;;4402109;32;20108;-75
2022/09/25 09:34:40;;;;;;;1.35;1.23;;;15.40;99.90;;;;;;4383403;32;20105;-75
2022/09/25 09:37:18;;;;;;;1.05;0.95;;;15.40;99.90;;;;;;4402918;32;20068;-75
2022/09/25 09:39:51;;;;;;;2.75;1.62;;;15.50;99.90;;;;;;4413970;32;20093;-75
2022/09/25 09:42:36;;;;;;;0.73;0.73;;;15.60;99.90;;;;;;4414697;32;20105;-74
2022/09/25 09:45:27;;;;;;;3.47;0.88;;;15.70;99.90;;;;;;4414716;32;20089;-75
2022/09/25 09:48:17;;;;;;;1.15;0.98;;;15.80;99.90;;;;;;4403522;32;20124;-75
2022/09/25 09:50:49;;;;;;;0.75;0.75;;;15.90;99.90;;;;;;4403403;32;20521;-75
2022/09/25 09:53:33;;;;;;;0.90;0.85;;;16.00;99.90;;;;;;4415638;32;20490;-75
2022/09/25 09:56:04;;;;;;;0.70;0.70;;;16.10;99.90;;;;;;4401508;32;20078;-75
2022/09/25 09:58:45;;;;;;;0.77;0.77;;;16.20;99.90;;;;;;4417625;32;20077;-74
2022/09/25 10:01:14;;;;;;;3.40;1.12;;;16.30;99.90;;;;;;4413468;32;20547;-75
2022/09/25 10:03:42;;;;;;;0.80;0.80;;;16.50;99.90;;;;;;4397698;32;20148;-74
2022/09/25 10:06:11;;;;;;;0.70;0.70;;;16.50;99.90;;;;;;4412318;32;20077;-75
2022/09/25 10:08:37;;;;;;;1.27;1.12;;;16.70;99.90;;;;;;4415030;32;20097;-75
2022/09/25 10:11:09;;;;;;;3.22;1.00;;;16.70;99.90;;;;;;4413477;32;20132;-75
2022/09/25 10:13:37;;;;;;;1.50;1.12;;;16.60;99.90;;;;;;4414335;32;20126;-75
2022/09/25 10:16:10;;;;;;;2.08;1.10;;;16.60;99.90;;;;;;4412338;32;20066;-75
2022/09/25 10:18:51;;;;;;;2.00;1.42;;;16.70;99.90;;;;;;4410257;32;20089;-75
2022/09/25 10:21:20;;;;;;;2.25;0.73;;;16.80;99.90;;;;;;4412116;32;20176;-75
2022/09/25 10:23:48;;;;;;;3.58;0.90;;;16.80;99.90;;;;;;4413353;32;20416;-75
2022/09/25 10:26:27;;;;;;;1.17;1.05;;;16.60;99.90;;;;;;4412419;32;20125;-75
2022/09/25 10:28:57;;;;;;;0.90;0.90;;;16.60;99.90;;;;;;4413828;32;20074;-75
2022/09/25 10:31:25;;;;;;;0.85;0.85;;;16.60;99.90;;;;;;4415859;32;20085;-75
2022/09/25 10:34:02;;;;;;;0.75;0.75;;;16.70;99.90;;;;;;4393715;32;20081;-75
2022/09/25 10:36:33;;;;;;;0.88;0.80;;;16.90;99.90;;;;;;4412598;32;20560;-75
2022/09/25 10:38:59;;;;;;;;;;;17.00;99.90;;;;;;4412236;32;20142;-75
2022/09/25 10:41:25;;;;;;;0.73;0.73;;;17.10;99.90;;;;;;4411601;32;19984;-75
2022/09/25 10:43:55;;;;;;;1.48;0.90;;;17.00;99.90;;;;;;4414498;32;20066;-75
2022/09/25 10:50:21;;;;;;;1.60;1.12;;;17.10;99.90;;;;;;4401026;32;20131;-75
2022/09/25 10:52:09;;;;;;;0.95;0.95;;;17.10;99.90;;;;;;4400308;32;20662;-75
2022/09/25 10:54:35;;;;;;;0.70;0.70;;;17.20;99.90;;;;;;4407812;32;20530;-75
2022/09/25 10:57:16;;;;;;;0.70;0.70;;;17.30;99.90;;;;;;4409901;32;20084;-75
2022/09/25 10:59:47;;;;;;;0.85;0.80;;;17.40;99.90;;;;;;4398855;32;20604;-75
2022/09/25 11:02:38;;;;;;;2.78;1.20;;;17.50;99.90;;;;;;4413848;32;20146;-75
2022/09/25 11:05:06;;;;;;;2.58;1.00;;;17.50;99.90;;;;;;4398087;32;20088;-75
2022/09/25 11:07:33;;;;;;;0.68;0.68;;;17.60;99.90;;;;;;4413432;32;20062;-74
2022/09/25 11:09:59;;;;;;;1.15;1.05;;;17.50;99.90;;;;;;4411240;32;20066;-74
2022/09/25 11:12:28;;;;;;;1.33;0.90;;;17.60;99.90;;;;;;4413776;32;20065;-75
2022/09/25 11:15:00;;;;;;;0.70;0.70;;;17.70;99.90;;;;;;4412786;32;20066;-76
2022/09/25 11:17:40;;;;;;;1.45;0.93;;;17.80;99.90;;;;;;4412579;32;20491;-74
2022/09/25 11:20:28;;;;;;;0.60;0.60;;;17.90;99.90;;;;;;4401341;32;20095;-75
2022/09/25 11:23:21;;;;;;;0.68;0.68;;;17.90;99.90;;;;;;4405184;32;20066;-75
2022/09/25 11:26:10;;;;;;;0.93;0.93;;;18.00;99.90;;;;;;4394366;32;20113;-74
2022/09/25 11:29:04;;;;;;;0.93;0.90;;;18.10;99.90;;;;;;4396122;32;20065;-76
2022/09/25 11:31:42;;;;;;;0.77;0.77;;;18.10;99.90;;;;;;4397322;32;20230;-75
2022/09/25 11:34:25;;;;;;;0.70;0.70;;;18.30;99.90;;;;;;4371270;32;20074;-76
2022/09/25 11:37:15;;;;;;;0.93;0.80;;;18.70;99.90;;;;;;4408080;32;20066;-76
2022/09/25 11:41:21;;;;;;;0.93;0.82;;;18.90;99.90;;;;;;4398261;32;20065;-76
2022/09/25 11:42:42;;;;;;;1.17;0.57;;;19.50;99.90;;;;;;4402794;32;20102;-75
2022/09/25 11:45:23;;;;;;;0.60;0.60;;;20.00;99.90;;;;;;4409136;32;20104;-74
2022/09/25 11:47:53;;;;;;;;;;;20.20;99.90;;;;;;4408848;32;20537;-76
2022/09/25 11:50:21;;;;;;;0.40;0.40;;;20.30;99.90;;;;;;4410094;32;19969;-76
2022/09/25 11:53:03;;;;;;;0.60;0.60;;;20.80;99.90;;;;;;4408624;32;20529;-75
2022/09/25 11:56:01;;;;;;;0.80;0.50;;;20.90;99.90;;;;;;4406555;32;20065;-76
2022/09/25 11:58:56;;;;;;;0.50;0.50;;;21.20;99.90;;;;;;4400883;32;20102;-76
2022/09/25 12:01:44;;;;;;;0.37;0.37;;;21.70;99.90;;;;;;4397434;32;20078;-74
2022/09/25 12:04:38;;;;;;;0.30;0.30;;;22.40;99.90;;;;;;4389075;32;20081;-75
2022/09/25 12:07:18;;;;;;;0.57;0.50;;;22.90;99.90;;;;;;4399244;32;20081;-76
2022/09/25 12:10:03;;;;;;;1.03;0.57;;;23.30;99.90;;;;;;4406377;32;20082;-74
2022/09/25 12:12:56;;;;;;;0.40;0.40;;;23.10;99.90;;;;;;4408328;32;20078;-75
2022/09/25 12:15:29;;;;;;;0.95;0.65;;;23.00;99.90;;;;;;4397292;32;20156;-75
2022/09/25 12:18:08;;;;;;;0.40;0.40;;;22.90;99.90;;;;;;4396254;32;20070;-75
2022/09/25 12:20:58;;;;;;;12.18;0.70;;;23.20;99.90;;;;;;4410178;32;20093;-76
2022/09/25 12:23:30;;;;;;;1.30;1.03;;;23.40;99.90;;;;;;4401165;32;20089;-75
2022/09/25 12:26:29;;;;;;;0.47;0.47;;;23.80;99.40;;;;;;4405833;32;20182;-75
2022/09/25 12:29:03;;;;;;;0.52;0.47;;;23.80;98.90;;;;;;4390608;32;20105;-75
2022/09/25 12:31:44;;;;;;;1.27;0.77;;;23.80;99.90;;;;;;4409998;32;20124;-75
2022/09/25 12:34:36;;;;;;;0.75;0.55;;;23.70;99.00;;;;;;4389635;32;20069;-75
2022/09/25 12:37:29;;;;;;;0.62;0.62;;;24.00;98.30;;;;;;4399169;32;20089;-74
2022/09/25 12:39:59;;;;;;;0.37;0.37;;;23.90;98.00;;;;;;4396185;32;20101;-74
2022/09/25 12:42:47;;;;;;;0.65;0.45;;;24.10;96.80;;;;;;4406704;32;20062;-74
2022/09/25 12:45:36;;;;;;;14.02;0.62;;;24.00;96.10;;;;;;4385787;32;20069;-75
2022/09/25 12:48:13;;;;;;;0.40;0.40;;;23.30;96.90;;;;;;4396854;32;20065;-75
2022/09/25 12:51:02;;;;;;;0.80;0.40;;;23.20;96.70;;;;;;4406934;32;20092;-74
2022/09/25 12:53:44;;;;;;;0.80;0.50;;;22.60;98.00;;;;;;4394974;32;20089;-74
2022/09/25 12:56:18;;;;;;;0.40;0.40;;;22.50;98.00;;;;;;4407161;32;20074;-74
2022/09/25 12:59:10;;;;;;;3.47;1.25;;;22.40;98.70;;;;;;4409177;32;20419;-74
2022/09/25 13:01:45;;;;;;;0.40;0.40;;;22.30;98.70;;;;;;4398162;32;20519;-74
2022/09/25 13:04:50;;;;;;;0.43;0.43;;;22.30;99.00;;;;;;4387655;32;20078;-75
2022/09/25 13:07:22;;;;;;;3.47;0.88;;;22.20;99.20;;;;;;4391400;32;20078;-75
2022/09/25 13:09:48;;;;;;;0.50;0.50;;;21.80;99.90;;;;;;4408541;32;20065;-76
2022/09/25 13:12:36;;;;;;;0.50;0.50;;;21.70;99.90;;;;;;4409284;32;20109;-75
2022/09/25 13:15:11;;;;;;;0.75;0.75;;;21.60;99.90;;;;;;4406150;32;20467;-75
2022/09/25 13:17:38;;;;;;;0.70;0.65;;;21.70;99.90;;;;;;4406355;32;20066;-76